sensor_id;sensor_type;location;lat;lon;timestamp;temperature;humidity
3492;DHT22;1760;52.480;13.422;2022-12-07T00:00:55;3.50;99.90
3492;DHT22;1760;52.480;13.422;2022-12-07T00:03:22;3.40;99.90
3492;DHT22;1760;52.480;13.422;2022-12-07T00:05:49;3.40;99.90
3492;DHT22;1760;52.480;13.422;2022-12-07T00:08:15;3.30;99.90
3492;DHT22;1760;52.480;13.422;2022-12-07T00:10:45;3.40;99.90
3492;DHT22;1760;52.480;13.422;2022-12-07T00:13:15;3.40;99.90
3492;DHT22;1760;52.480;13.422;2022-12-07T00:15:44;3.30;99.90
3492;DHT22;1760;52.480;13.422;2022-12-07T00:18:11;3.30;99.90
3492;DHT22;1760;52.480;13.422;2022-12-07T00:20:37;3.30;99.90
3492;DHT22;1760;52.480;13.422;2022-12-07T00:23:04;3.20;99.90
3492;DHT22;1760;52.480;13.422;2022-12-07T00:25:31;3.10;99.90
3492;DHT22;1760;52.480;13.422;2022-12-07T00:27:58;3.10;99.90
3492;DHT22;1760;52.480;13.422;2022-12-07T00:30:25;3.00;99.90
3492;DHT22;1760;52.480;13.422;2022-12-07T00:32:55;4.30;99.90
3492;DHT22;1760;52.480;13.422;2022-12-07T00:35:21;3.10;99.90
3492;DHT22;1760;52.480;13.422;2022-12-07T00:37:48;3.00;99.90
3492;DHT22;1760;52.480;13.422;2022-12-07T00:40:15;3.10;99.90
3492;DHT22;1760;52.480;13.422;2022-12-07T00:42:42;3.10;99.90
3492;DHT22;1760;52.480;13.422;2022-12-07T00:45:09;3.20;99.90
3492;DHT22;1760;52.480;13.422;2022-12-07T00:47:36;3.10;99.90
3492;DHT22;1760;52.480;13.422;2022-12-07T00:50:05;3.00;99.90
3492;DHT22;1760;52.480;13.422;2022-12-07T00:52:32;3.00;99.90
3492;DHT22;1760;52.480;13.422;2022-12-07T00:55:02;2.90;99.90
3492;DHT22;1760;52.480;13.422;2022-12-07T00:57:30;2.80;99.90
3492;DHT22;1760;52.480;13.422;2022-12-07T00:59:57;2.80;99.90
3492;DHT22;1760;52.480;13.422;2022-12-07T01:02:26;2.80;99.90
3492;DHT22;1760;52.480;13.422;2022-12-07T01:04:52;2.80;99.90
3492;DHT22;1760;52.480;13.422;2022-12-07T01:07:21;2.80;99.90
3492;DHT22;1760;52.480;13.422;2022-12-07T01:09:48;2.80;99.90
3492;DHT22;1760;52.480;13.422;2022-12-07T01:12:15;2.70;99.90
3492;DHT22;1760;52.480;13.422;2022-12-07T01:14:42;2.70;99.90
3492;DHT22;1760;52.480;13.422;2022-12-07T01:17:08;2.80;99.90
3492;DHT22;1760;52.480;13.422;2022-12-07T01:19:35;2.80;99.90
3492;DHT22;1760;52.480;13.422;2022-12-07T01:22:04;2.80;99.90
3492;DHT22;1760;52.480;13.422;2022-12-07T01:24:32;2.80;99.90
3492;DHT22;1760;52.480;13.422;2022-12-07T01:26:59;2.90;99.90
3492;DHT22;1760;52.480;13.422;2022-12-07T01:29:26;2.90;99.90
3492;DHT22;1760;52.480;13.422;2022-12-07T01:31:53;3.00;99.90
3492;DHT22;1760;52.480;13.422;2022-12-07T01:34:19;3.00;99.90
3492;DHT22;1760;52.480;13.422;2022-12-07T01:36:46;3.00;99.90
3492;DHT22;1760;52.480;13.422;2022-12-07T01:39:13;3.00;99.90
3492;DHT22;1760;52.480;13.422;2022-12-07T01:41:44;3.00;99.90
3492;DHT22;1760;52.480;13.422;2022-12-07T01:44:19;3.00;99.90
3492;DHT22;1760;52.480;13.422;2022-12-07T01:46:53;3.00;99.90
3492;DHT22;1760;52.480;13.422;2022-12-07T01:49:28;3.00;99.90
3492;DHT22;1760;52.480;13.422;2022-12-07T01:52:02;3.00;99.90
3492;DHT22;1760;52.480;13.422;2022-12-07T01:54:31;3.00;99.90
3492;DHT22;1760;52.480;13.422;2022-12-07T01:57:01;3.00;99.90
3492;DHT22;1760;52.480;13.422;2022-12-07T01:59:29;3.00;99.90
3492;DHT22;1760;52.480;13.422;2022-12-07T02:01:56;3.10;99.90
3492;DHT22;1760;52.480;13.422;2022-12-07T02:04:23;3.00;99.90
3492;DHT22;1760;52.480;13.422;2022-12-07T02:06:51;3.10;99.90
3492;DHT22;1760;52.480;13.422;2022-12-07T02:09:18;3.10;99.90
3492;DHT22;1760;52.480;13.422;2022-12-07T02:11:45;3.00;99.90
3492;DHT22;1760;52.480;13.422;2022-12-07T02:14:14;3.00;99.90
3492;DHT22;1760;52.480;13.422;2022-12-07T02:16:47;3.10;99.90
3492;DHT22;1760;52.480;13.422;2022-12-07T02:19:46;3.10;99.90
3492;DHT22;1760;52.480;13.422;2022-12-07T02:22:29;3.10;99.90
3492;DHT22;1760;52.480;13.422;2022-12-07T02:25:09;3.20;99.90
3492;DHT22;1760;52.480;13.422;2022-12-07T02:27:46;3.20;99.90
3492;DHT22;1760;52.480;13.422;2022-12-07T02:35:30;3.20;99.90
3492;DHT22;1760;52.480;13.422;2022-12-07T02:38:03;3.20;99.90
3492;DHT22;1760;52.480;13.422;2022-12-07T02:40:38;3.20;99.90
3492;DHT22;1760;52.480;13.422;2022-12-07T02:43:10;3.20;99.90
3492;DHT22;1760;52.480;13.422;2022-12-07T02:45:40;3.10;99.90
3492;DHT22;1760;52.480;13.422;2022-12-07T02:48:09;3.10;99.90
3492;DHT22;1760;52.480;13.422;2022-12-07T02:50:39;3.10;99.90
3492;DHT22;1760;52.480;13.422;2022-12-07T02:53:28;3.00;99.90
3492;DHT22;1760;52.480;13.422;2022-12-07T02:55:55;3.00;99.90
3492;DHT22;1760;52.480;13.422;2022-12-07T02:58:32;2.90;99.90
3492;DHT22;1760;52.480;13.422;2022-12-07T03:01:15;3.00;99.90
3492;DHT22;1760;52.480;13.422;2022-12-07T03:03:48;3.10;99.90
3492;DHT22;1760;52.480;13.422;2022-12-07T03:06:26;3.00;99.90
3492;DHT22;1760;52.480;13.422;2022-12-07T03:09:03;3.00;99.90
3492;DHT22;1760;52.480;13.422;2022-12-07T03:11:37;2.90;99.90
3492;DHT22;1760;52.480;13.422;2022-12-07T03:14:14;3.00;99.90
3492;DHT22;1760;52.480;13.422;2022-12-07T03:16:47;3.00;99.90
3492;DHT22;1760;52.480;13.422;2022-12-07T03:19:17;2.90;99.90
3492;DHT22;1760;52.480;13.422;2022-12-07T03:21:52;3.00;99.90
3492;DHT22;1760;52.480;13.422;2022-12-07T03:24:24;3.00;99.90
3492;DHT22;1760;52.480;13.422;2022-12-07T03:26:55;3.00;99.90
3492;DHT22;1760;52.480;13.422;2022-12-07T03:29:29;3.00;99.90
3492;DHT22;1760;52.480;13.422;2022-12-07T03:32:01;3.00;99.90
3492;DHT22;1760;52.480;13.422;2022-12-07T03:34:32;3.00;99.90
3492;DHT22;1760;52.480;13.422;2022-12-07T03:37:05;3.00;99.90
3492;DHT22;1760;52.480;13.422;2022-12-07T03:39:39;3.10;99.90
3492;DHT22;1760;52.480;13.422;2022-12-07T03:42:10;2.90;99.90
3492;DHT22;1760;52.480;13.422;2022-12-07T03:44:38;2.90;99.90
3492;DHT22;1760;52.480;13.422;2022-12-07T03:47:10;2.90;99.90
3492;DHT22;1760;52.480;13.422;2022-12-07T03:49:43;2.90;99.90
3492;DHT22;1760;52.480;13.422;2022-12-07T03:52:20;2.90;99.90
3492;DHT22;1760;52.480;13.422;2022-12-07T03:54:54;2.90;99.90
3492;DHT22;1760;52.480;13.422;2022-12-07T03:57:24;2.90;99.90
3492;DHT22;1760;52.480;13.422;2022-12-07T03:59:53;3.00;99.90
3492;DHT22;1760;52.480;13.422;2022-12-07T04:02:22;2.80;99.90
3492;DHT22;1760;52.480;13.422;2022-12-07T04:04:50;2.90;99.90
3492;DHT22;1760;52.480;13.422;2022-12-07T04:07:18;2.80;99.90
3492;DHT22;1760;52.480;13.422;2022-12-07T04:09:45;2.90;99.90
3492;DHT22;1760;52.480;13.422;2022-12-07T04:12:12;2.90;99.90
3492;DHT22;1760;52.480;13.422;2022-12-07T04:14:39;2.90;99.90
3492;DHT22;1760;52.480;13.422;2022-12-07T04:17:06;2.80;99.90
3492;DHT22;1760;52.480;13.422;2022-12-07T04:19:34;2.80;99.90
3492;DHT22;1760;52.480;13.422;2022-12-07T04:22:02;2.80;99.90
3492;DHT22;1760;52.480;13.422;2022-12-07T04:24:31;2.90;99.90
3492;DHT22;1760;52.480;13.422;2022-12-07T04:26:58;2.90;99.90
3492;DHT22;1760;52.480;13.422;2022-12-07T04:29:26;2.80;99.90
3492;DHT22;1760;52.480;13.422;2022-12-07T04:31:53;2.80;99.90
3492;DHT22;1760;52.480;13.422;2022-12-07T04:34:20;2.90;99.90
3492;DHT22;1760;52.480;13.422;2022-12-07T04:36:47;2.80;99.90
3492;DHT22;1760;52.480;13.422;2022-12-07T04:39:19;2.80;99.90
3492;DHT22;1760;52.480;13.422;2022-12-07T04:41:47;2.80;99.90
3492;DHT22;1760;52.480;13.422;2022-12-07T04:44:15;2.80;99.90
3492;DHT22;1760;52.480;13.422;2022-12-07T04:46:42;2.80;99.90
3492;DHT22;1760;52.480;13.422;2022-12-07T04:49:12;2.80;99.90
3492;DHT22;1760;52.480;13.422;2022-12-07T04:51:42;2.80;99.90
3492;DHT22;1760;52.480;13.422;2022-12-07T04:54:09;2.80;99.90
3492;DHT22;1760;52.480;13.422;2022-12-07T04:56:37;2.90;99.90
3492;DHT22;1760;52.480;13.422;2022-12-07T04:59:06;2.90;99.90
3492;DHT22;1760;52.480;13.422;2022-12-07T05:01:35;2.90;99.90
3492;DHT22;1760;52.480;13.422;2022-12-07T05:04:05;2.80;99.90
3492;DHT22;1760;52.480;13.422;2022-12-07T05:06:32;2.80;99.90
3492;DHT22;1760;52.480;13.422;2022-12-07T05:08:59;2.90;99.90
3492;DHT22;1760;52.480;13.422;2022-12-07T05:11:25;2.90;99.90
3492;DHT22;1760;52.480;13.422;2022-12-07T05:14:11;2.90;99.90
3492;DHT22;1760;52.480;13.422;2022-12-07T05:16:38;2.90;99.90
3492;DHT22;1760;52.480;13.422;2022-12-07T05:19:06;2.90;99.90
3492;DHT22;1760;52.480;13.422;2022-12-07T05:21:34;2.90;99.90
3492;DHT22;1760;52.480;13.422;2022-12-07T05:24:02;2.90;99.90
3492;DHT22;1760;52.480;13.422;2022-12-07T05:26:30;2.90;99.90
3492;DHT22;1760;52.480;13.422;2022-12-07T05:28:57;3.00;99.90
3492;DHT22;1760;52.480;13.422;2022-12-07T05:31:26;3.00;99.90
3492;DHT22;1760;52.480;13.422;2022-12-07T05:33:53;3.10;99.90
3492;DHT22;1760;52.480;13.422;2022-12-07T05:36:20;3.10;99.90
3492;DHT22;1760;52.480;13.422;2022-12-07T05:38:47;3.10;99.90
3492;DHT22;1760;52.480;13.422;2022-12-07T05:41:16;3.20;99.90
3492;DHT22;1760;52.480;13.422;2022-12-07T05:44:01;3.10;99.90
3492;DHT22;1760;52.480;13.422;2022-12-07T05:46:29;3.20;99.90
3492;DHT22;1760;52.480;13.422;2022-12-07T05:48:56;3.20;99.90
3492;DHT22;1760;52.480;13.422;2022-12-07T05:51:23;3.20;99.90
3492;DHT22;1760;52.480;13.422;2022-12-07T05:53:50;3.20;99.90
3492;DHT22;1760;52.480;13.422;2022-12-07T05:56:19;3.20;99.90
3492;DHT22;1760;52.480;13.422;2022-12-07T05:58:46;3.40;99.90
3492;DHT22;1760;52.480;13.422;2022-12-07T06:01:32;3.30;99.90
3492;DHT22;1760;52.480;13.422;2022-12-07T06:03:59;3.30;99.90
3492;DHT22;1760;52.480;13.422;2022-12-07T06:06:26;3.40;99.90
3492;DHT22;1760;52.480;13.422;2022-12-07T06:08:53;3.40;99.90
3492;DHT22;1760;52.480;13.422;2022-12-07T06:11:20;3.40;99.90
3492;DHT22;1760;52.480;13.422;2022-12-07T06:14:04;3.50;99.90
3492;DHT22;1760;52.480;13.422;2022-12-07T06:16:32;3.50;99.90
3492;DHT22;1760;52.480;13.422;2022-12-07T06:18:59;3.60;99.90
3492;DHT22;1760;52.480;13.422;2022-12-07T06:21:26;3.70;99.90
3492;DHT22;1760;52.480;13.422;2022-12-07T06:23:53;3.70;99.90
3492;DHT22;1760;52.480;13.422;2022-12-07T06:26:23;3.70;99.90
3492;DHT22;1760;52.480;13.422;2022-12-07T06:28:52;3.70;99.90
3492;DHT22;1760;52.480;13.422;2022-12-07T06:31:19;3.70;99.90
3492;DHT22;1760;52.480;13.422;2022-12-07T06:33:47;3.70;99.90
3492;DHT22;1760;52.480;13.422;2022-12-07T06:36:23;3.70;99.90
3492;DHT22;1760;52.480;13.422;2022-12-07T06:38:51;3.80;99.90
3492;DHT22;1760;52.480;13.422;2022-12-07T06:41:18;3.60;99.90
3492;DHT22;1760;52.480;13.422;2022-12-07T06:43:45;3.60;99.90
3492;DHT22;1760;52.480;13.422;2022-12-07T06:46:12;3.60;99.90
3492;DHT22;1760;52.480;13.422;2022-12-07T06:48:39;3.60;99.90
3492;DHT22;1760;52.480;13.422;2022-12-07T06:51:11;3.60;99.90
3492;DHT22;1760;52.480;13.422;2022-12-07T06:53:41;3.60;99.90
3492;DHT22;1760;52.480;13.422;2022-12-07T06:56:10;3.60;99.90
3492;DHT22;1760;52.480;13.422;2022-12-07T06:58:44;3.70;99.90
3492;DHT22;1760;52.480;13.422;2022-12-07T07:01:14;3.70;99.90
3492;DHT22;1760;52.480;13.422;2022-12-07T07:03:42;3.70;99.90
3492;DHT22;1760;52.480;13.422;2022-12-07T07:06:11;3.70;99.90
3492;DHT22;1760;52.480;13.422;2022-12-07T07:08:39;3.80;99.90
3492;DHT22;1760;52.480;13.422;2022-12-07T07:11:06;3.80;99.90
3492;DHT22;1760;52.480;13.422;2022-12-07T07:13:35;3.90;99.90
3492;DHT22;1760;52.480;13.422;2022-12-07T07:16:04;3.90;99.90
3492;DHT22;1760;52.480;13.422;2022-12-07T07:18:34;3.90;99.90
3492;DHT22;1760;52.480;13.422;2022-12-07T07:21:03;4.00;99.90
3492;DHT22;1760;52.480;13.422;2022-12-07T07:23:34;4.00;99.90
3492;DHT22;1760;52.480;13.422;2022-12-07T07:26:01;4.00;99.90
3492;DHT22;1760;52.480;13.422;2022-12-07T07:28:30;4.00;99.90
3492;DHT22;1760;52.480;13.422;2022-12-07T07:30:57;4.10;99.90
3492;DHT22;1760;52.480;13.422;2022-12-07T07:33:27;4.10;99.90
3492;DHT22;1760;52.480;13.422;2022-12-07T07:35:56;4.10;99.90
3492;DHT22;1760;52.480;13.422;2022-12-07T07:38:23;4.10;99.90
3492;DHT22;1760;52.480;13.422;2022-12-07T07:40:55;4.10;99.90
3492;DHT22;1760;52.480;13.422;2022-12-07T07:43:22;4.10;99.90
3492;DHT22;1760;52.480;13.422;2022-12-07T07:45:49;4.10;99.90
3492;DHT22;1760;52.480;13.422;2022-12-07T07:48:16;4.10;99.90
3492;DHT22;1760;52.480;13.422;2022-12-07T07:50:43;4.00;99.90
3492;DHT22;1760;52.480;13.422;2022-12-07T07:53:10;4.00;99.90
3492;DHT22;1760;52.480;13.422;2022-12-07T07:55:37;4.00;99.90
3492;DHT22;1760;52.480;13.422;2022-12-07T07:58:05;4.00;99.90
3492;DHT22;1760;52.480;13.422;2022-12-07T08:00:32;4.00;99.90
3492;DHT22;1760;52.480;13.422;2022-12-07T08:03:02;4.00;99.90
3492;DHT22;1760;52.480;13.422;2022-12-07T08:05:31;4.10;99.90
3492;DHT22;1760;52.480;13.422;2022-12-07T08:07:58;4.10;99.90
3492;DHT22;1760;52.480;13.422;2022-12-07T08:10:25;4.20;99.90
3492;DHT22;1760;52.480;13.422;2022-12-07T08:12:52;4.20;99.90
3492;DHT22;1760;52.480;13.422;2022-12-07T08:15:41;4.20;99.90
3492;DHT22;1760;52.480;13.422;2022-12-07T08:18:11;4.10;99.90
3492;DHT22;1760;52.480;13.422;2022-12-07T08:20:39;4.20;99.90
3492;DHT22;1760;52.480;13.422;2022-12-07T08:23:07;4.10;99.90
3492;DHT22;1760;52.480;13.422;2022-12-07T08:25:34;4.20;99.90
3492;DHT22;1760;52.480;13.422;2022-12-07T08:28:02;4.20;99.90
3492;DHT22;1760;52.480;13.422;2022-12-07T08:30:29;4.20;99.90
3492;DHT22;1760;52.480;13.422;2022-12-07T08:32:58;4.30;99.90
3492;DHT22;1760;52.480;13.422;2022-12-07T08:35:25;4.20;99.90
3492;DHT22;1760;52.480;13.422;2022-12-07T08:37:52;4.30;99.90
3492;DHT22;1760;52.480;13.422;2022-12-07T08:40:19;4.20;99.90
3492;DHT22;1760;52.480;13.422;2022-12-07T08:42:49;4.20;99.90
3492;DHT22;1760;52.480;13.422;2022-12-07T08:45:17;4.20;99.90
3492;DHT22;1760;52.480;13.422;2022-12-07T08:47:46;4.30;99.90
3492;DHT22;1760;52.480;13.422;2022-12-07T08:50:19;4.20;99.90
3492;DHT22;1760;52.480;13.422;2022-12-07T08:52:48;4.20;99.90
3492;DHT22;1760;52.480;13.422;2022-12-07T08:55:19;4.20;99.90
3492;DHT22;1760;52.480;13.422;2022-12-07T08:57:46;4.30;99.90
3492;DHT22;1760;52.480;13.422;2022-12-07T09:00:14;4.30;99.90
3492;DHT22;1760;52.480;13.422;2022-12-07T09:02:41;4.30;99.90
3492;DHT22;1760;52.480;13.422;2022-12-07T09:05:09;4.40;99.90
3492;DHT22;1760;52.480;13.422;2022-12-07T09:07:38;4.40;99.90
3492;DHT22;1760;52.480;13.422;2022-12-07T09:10:06;4.30;99.90
3492;DHT22;1760;52.480;13.422;2022-12-07T09:12:34;4.30;99.90
3492;DHT22;1760;52.480;13.422;2022-12-07T09:15:02;4.30;99.90
3492;DHT22;1760;52.480;13.422;2022-12-07T09:17:32;4.30;99.90
3492;DHT22;1760;52.480;13.422;2022-12-07T09:20:03;4.30;99.90
3492;DHT22;1760;52.480;13.422;2022-12-07T09:22:30;4.30;99.90
3492;DHT22;1760;52.480;13.422;2022-12-07T09:24:59;4.20;99.90
3492;DHT22;1760;52.480;13.422;2022-12-07T09:27:26;4.20;99.90
3492;DHT22;1760;52.480;13.422;2022-12-07T09:29:55;4.20;99.90
3492;DHT22;1760;52.480;13.422;2022-12-07T09:32:22;4.10;99.90
3492;DHT22;1760;52.480;13.422;2022-12-07T09:34:55;4.20;99.90
3492;DHT22;1760;52.480;13.422;2022-12-07T09:37:22;4.20;99.90
3492;DHT22;1760;52.480;13.422;2022-12-07T09:39:49;4.30;99.90
3492;DHT22;1760;52.480;13.422;2022-12-07T09:42:34;4.30;99.90
3492;DHT22;1760;52.480;13.422;2022-12-07T09:45:02;4.30;99.90
3492;DHT22;1760;52.480;13.422;2022-12-07T09:47:33;4.30;99.90
3492;DHT22;1760;52.480;13.422;2022-12-07T09:50:04;4.20;99.90
3492;DHT22;1760;52.480;13.422;2022-12-07T09:52:31;4.20;99.90
3492;DHT22;1760;52.480;13.422;2022-12-07T09:54:58;4.70;99.90
3492;DHT22;1760;52.480;13.422;2022-12-07T09:57:31;3.90;99.90
3492;DHT22;1760;52.480;13.422;2022-12-07T10:00:06;4.30;99.90
3492;DHT22;1760;52.480;13.422;2022-12-07T10:02:36;4.10;99.90
3492;DHT22;1760;52.480;13.422;2022-12-07T10:05:06;4.00;99.90
3492;DHT22;1760;52.480;13.422;2022-12-07T10:07:33;4.10;99.90
3492;DHT22;1760;52.480;13.422;2022-12-07T10:10:03;4.00;99.90
3492;DHT22;1760;52.480;13.422;2022-12-07T10:12:30;4.10;99.90
3492;DHT22;1760;52.480;13.422;2022-12-07T10:15:03;4.10;99.90
3492;DHT22;1760;52.480;13.422;2022-12-07T10:17:37;4.20;99.90
3492;DHT22;1760;52.480;13.422;2022-12-07T10:20:18;3.90;99.90
3492;DHT22;1760;52.480;13.422;2022-12-07T10:23:04;4.20;99.90
3492;DHT22;1760;52.480;13.422;2022-12-07T10:25:33;4.20;99.90
3492;DHT22;1760;52.480;13.422;2022-12-07T10:28:17;4.20;99.90
3492;DHT22;1760;52.480;13.422;2022-12-07T10:30:54;4.20;99.90
3492;DHT22;1760;52.480;13.422;2022-12-07T10:33:29;4.30;99.90
3492;DHT22;1760;52.480;13.422;2022-12-07T10:35:56;4.20;99.90
3492;DHT22;1760;52.480;13.422;2022-12-07T10:38:25;4.20;99.90
3492;DHT22;1760;52.480;13.422;2022-12-07T10:41:04;4.10;99.90
3492;DHT22;1760;52.480;13.422;2022-12-07T10:43:31;4.10;99.90
3492;DHT22;1760;52.480;13.422;2022-12-07T10:46:31;4.20;99.90
3492;DHT22;1760;52.480;13.422;2022-12-07T10:49:14;4.10;99.90
3492;DHT22;1760;52.480;13.422;2022-12-07T10:51:47;4.10;99.90
3492;DHT22;1760;52.480;13.422;2022-12-07T10:54:21;4.10;99.90
3492;DHT22;1760;52.480;13.422;2022-12-07T10:57:07;4.10;99.90
3492;DHT22;1760;52.480;13.422;2022-12-07T10:59:53;4.10;99.90
3492;DHT22;1760;52.480;13.422;2022-12-07T11:02:40;4.10;99.90
3492;DHT22;1760;52.480;13.422;2022-12-07T11:05:18;4.10;99.90
3492;DHT22;1760;52.480;13.422;2022-12-07T11:07:57;4.10;99.90
3492;DHT22;1760;52.480;13.422;2022-12-07T11:10:31;4.30;99.90
3492;DHT22;1760;52.480;13.422;2022-12-07T11:13:19;4.30;99.90
3492;DHT22;1760;52.480;13.422;2022-12-07T11:16:02;4.40;99.90
3492;DHT22;1760;52.480;13.422;2022-12-07T11:18:43;4.50;99.90
3492;DHT22;1760;52.480;13.422;2022-12-07T11:21:18;4.50;99.90
3492;DHT22;1760;52.480;13.422;2022-12-07T11:23:51;4.70;99.90
3492;DHT22;1760;52.480;13.422;2022-12-07T11:26:31;4.70;99.90
3492;DHT22;1760;52.480;13.422;2022-12-07T11:29:20;4.60;99.90
3492;DHT22;1760;52.480;13.422;2022-12-07T11:31:56;4.60;99.90
3492;DHT22;1760;52.480;13.422;2022-12-07T11:34:32;4.50;99.90
3492;DHT22;1760;52.480;13.422;2022-12-07T11:37:05;4.50;99.90
3492;DHT22;1760;52.480;13.422;2022-12-07T11:39:37;4.50;99.90
3492;DHT22;1760;52.480;13.422;2022-12-07T11:42:09;4.50;99.90
3492;DHT22;1760;52.480;13.422;2022-12-07T11:44:46;4.50;99.90
3492;DHT22;1760;52.480;13.422;2022-12-07T11:47:17;4.60;99.90
3492;DHT22;1760;52.480;13.422;2022-12-07T11:49:53;4.60;99.90
3492;DHT22;1760;52.480;13.422;2022-12-07T11:52:26;4.50;99.90
3492;DHT22;1760;52.480;13.422;2022-12-07T11:54:54;4.60;99.90
3492;DHT22;1760;52.480;13.422;2022-12-07T11:57:28;4.60;99.90
3492;DHT22;1760;52.480;13.422;2022-12-07T12:00:03;4.50;99.90
3492;DHT22;1760;52.480;13.422;2022-12-07T12:02:36;4.50;99.90
3492;DHT22;1760;52.480;13.422;2022-12-07T12:05:13;4.60;99.90
3492;DHT22;1760;52.480;13.422;2022-12-07T12:07:43;4.50;99.90
3492;DHT22;1760;52.480;13.422;2022-12-07T12:10:18;4.60;99.90
3492;DHT22;1760;52.480;13.422;2022-12-07T12:15:51;4.70;99.90
3492;DHT22;1760;52.480;13.422;2022-12-07T12:18:31;4.80;99.90
3492;DHT22;1760;52.480;13.422;2022-12-07T12:21:06;4.70;99.90
3492;DHT22;1760;52.480;13.422;2022-12-07T12:23:39;4.80;99.90
3492;DHT22;1760;52.480;13.422;2022-12-07T12:26:13;4.80;99.90
3492;DHT22;1760;52.480;13.422;2022-12-07T12:28:52;4.80;99.90
3492;DHT22;1760;52.480;13.422;2022-12-07T12:31:36;4.90;99.90
3492;DHT22;1760;52.480;13.422;2022-12-07T12:34:33;4.90;99.90
3492;DHT22;1760;52.480;13.422;2022-12-07T12:42:57;4.90;99.90
3492;DHT22;1760;52.480;13.422;2022-12-07T12:45:25;4.90;99.90
3492;DHT22;1760;52.480;13.422;2022-12-07T12:47:58;5.00;99.90
3492;DHT22;1760;52.480;13.422;2022-12-07T12:50:30;4.90;99.90
3492;DHT22;1760;52.480;13.422;2022-12-07T12:53:19;4.90;99.90
3492;DHT22;1760;52.480;13.422;2022-12-07T12:59:23;4.90;99.90
3492;DHT22;1760;52.480;13.422;2022-12-07T13:01:55;4.80;99.90
3492;DHT22;1760;52.480;13.422;2022-12-07T13:04:34;4.80;99.90
3492;DHT22;1760;52.480;13.422;2022-12-07T13:07:03;4.90;99.90
3492;DHT22;1760;52.480;13.422;2022-12-07T13:09:33;4.90;99.90
3492;DHT22;1760;52.480;13.422;2022-12-07T13:12:04;4.90;99.90
3492;DHT22;1760;52.480;13.422;2022-12-07T13:15:00;4.90;99.90
3492;DHT22;1760;52.480;13.422;2022-12-07T13:17:57;5.00;99.90
3492;DHT22;1760;52.480;13.422;2022-12-07T13:20:48;5.00;99.90
3492;DHT22;1760;52.480;13.422;2022-12-07T13:23:21;5.00;99.90
3492;DHT22;1760;52.480;13.422;2022-12-07T13:26:00;5.10;99.90
3492;DHT22;1760;52.480;13.422;2022-12-07T13:28:39;5.10;99.90
3492;DHT22;1760;52.480;13.422;2022-12-07T13:34:27;5.10;99.90
3492;DHT22;1760;52.480;13.422;2022-12-07T13:36:59;5.10;99.90
3492;DHT22;1760;52.480;13.422;2022-12-07T13:39:28;5.00;99.90
3492;DHT22;1760;52.480;13.422;2022-12-07T13:41:57;5.00;99.90
3492;DHT22;1760;52.480;13.422;2022-12-07T13:44:25;4.90;99.90
3492;DHT22;1760;52.480;13.422;2022-12-07T13:46:59;4.90;99.90
3492;DHT22;1760;52.480;13.422;2022-12-07T13:49:37;4.90;99.90
3492;DHT22;1760;52.480;13.422;2022-12-07T13:52:14;4.80;99.90
3492;DHT22;1760;52.480;13.422;2022-12-07T13:54:49;4.90;99.90
3492;DHT22;1760;52.480;13.422;2022-12-07T13:57:17;4.80;99.90
3492;DHT22;1760;52.480;13.422;2022-12-07T13:59:44;4.80;99.90
3492;DHT22;1760;52.480;13.422;2022-12-07T14:02:20;4.80;99.90
3492;DHT22;1760;52.480;13.422;2022-12-07T14:04:48;4.80;99.90
3492;DHT22;1760;52.480;13.422;2022-12-07T14:07:25;4.80;99.90
3492;DHT22;1760;52.480;13.422;2022-12-07T14:09:57;4.80;99.90
3492;DHT22;1760;52.480;13.422;2022-12-07T14:12:29;4.80;99.90
3492;DHT22;1760;52.480;13.422;2022-12-07T14:14:59;4.80;99.90
3492;DHT22;1760;52.480;13.422;2022-12-07T14:17:29;4.80;99.90
3492;DHT22;1760;52.480;13.422;2022-12-07T14:19:57;4.80;99.90
3492;DHT22;1760;52.480;13.422;2022-12-07T14:22:28;4.80;99.90
3492;DHT22;1760;52.480;13.422;2022-12-07T14:27:49;4.70;99.90
3492;DHT22;1760;52.480;13.422;2022-12-07T14:30:17;4.70;99.90
3492;DHT22;1760;52.480;13.422;2022-12-07T14:32:53;4.60;99.90
3492;DHT22;1760;52.480;13.422;2022-12-07T14:35:20;4.60;99.90
3492;DHT22;1760;52.480;13.422;2022-12-07T14:37:48;4.60;99.90
3492;DHT22;1760;52.480;13.422;2022-12-07T14:40:17;4.70;99.90
3492;DHT22;1760;52.480;13.422;2022-12-07T14:42:50;4.60;99.90
3492;DHT22;1760;52.480;13.422;2022-12-07T14:45:22;4.60;99.90
3492;DHT22;1760;52.480;13.422;2022-12-07T14:47:51;4.60;99.90
3492;DHT22;1760;52.480;13.422;2022-12-07T14:50:19;4.60;99.90
3492;DHT22;1760;52.480;13.422;2022-12-07T14:52:49;4.50;99.90
3492;DHT22;1760;52.480;13.422;2022-12-07T14:55:23;4.60;99.90
3492;DHT22;1760;52.480;13.422;2022-12-07T14:57:50;4.50;99.90
3492;DHT22;1760;52.480;13.422;2022-12-07T15:00:18;4.40;99.90
3492;DHT22;1760;52.480;13.422;2022-12-07T15:02:47;4.40;99.90
3492;DHT22;1760;52.480;13.422;2022-12-07T15:05:16;4.40;99.90
3492;DHT22;1760;52.480;13.422;2022-12-07T15:07:43;4.40;99.90
3492;DHT22;1760;52.480;13.422;2022-12-07T15:10:17;4.30;99.90
3492;DHT22;1760;52.480;13.422;2022-12-07T15:12:44;4.30;99.90
3492;DHT22;1760;52.480;13.422;2022-12-07T15:15:11;4.20;99.90
3492;DHT22;1760;52.480;13.422;2022-12-07T15:17:41;4.20;99.90
3492;DHT22;1760;52.480;13.422;2022-12-07T15:20:12;4.10;99.90
3492;DHT22;1760;52.480;13.422;2022-12-07T15:22:40;4.10;99.90
3492;DHT22;1760;52.480;13.422;2022-12-07T15:25:08;4.10;99.90
3492;DHT22;1760;52.480;13.422;2022-12-07T15:27:36;4.00;99.90
3492;DHT22;1760;52.480;13.422;2022-12-07T15:30:04;4.00;99.90
3492;DHT22;1760;52.480;13.422;2022-12-07T15:32:37;4.00;99.90
3492;DHT22;1760;52.480;13.422;2022-12-07T15:35:10;4.00;99.90
3492;DHT22;1760;52.480;13.422;2022-12-07T15:37:42;4.00;99.90
3492;DHT22;1760;52.480;13.422;2022-12-07T15:40:10;4.00;99.90
3492;DHT22;1760;52.480;13.422;2022-12-07T15:42:42;4.00;99.90
3492;DHT22;1760;52.480;13.422;2022-12-07T15:45:09;4.00;99.90
3492;DHT22;1760;52.480;13.422;2022-12-07T15:47:37;4.10;99.90
3492;DHT22;1760;52.480;13.422;2022-12-07T15:50:09;4.10;99.90
3492;DHT22;1760;52.480;13.422;2022-12-07T15:52:39;4.10;99.90
3492;DHT22;1760;52.480;13.422;2022-12-07T15:55:09;4.10;99.90
3492;DHT22;1760;52.480;13.422;2022-12-07T15:57:40;4.10;99.90
3492;DHT22;1760;52.480;13.422;2022-12-07T16:00:09;4.00;99.90
3492;DHT22;1760;52.480;13.422;2022-12-07T16:02:37;4.00;99.90
3492;DHT22;1760;52.480;13.422;2022-12-07T16:05:05;4.00;99.90
3492;DHT22;1760;52.480;13.422;2022-12-07T16:07:32;4.00;99.90
3492;DHT22;1760;52.480;13.422;2022-12-07T16:09:59;4.00;99.90
3492;DHT22;1760;52.480;13.422;2022-12-07T16:12:29;4.00;99.90
3492;DHT22;1760;52.480;13.422;2022-12-07T16:14:56;4.10;99.90
3492;DHT22;1760;52.480;13.422;2022-12-07T16:17:26;4.10;99.90
3492;DHT22;1760;52.480;13.422;2022-12-07T16:19:52;4.00;99.90
3492;DHT22;1760;52.480;13.422;2022-12-07T16:22:19;4.00;99.90
3492;DHT22;1760;52.480;13.422;2022-12-07T16:24:49;3.90;99.90
3492;DHT22;1760;52.480;13.422;2022-12-07T16:27:16;3.90;99.90
3492;DHT22;1760;52.480;13.422;2022-12-07T16:29:47;3.80;99.90
3492;DHT22;1760;52.480;13.422;2022-12-07T16:32:14;3.80;99.90
3492;DHT22;1760;52.480;13.422;2022-12-07T16:34:41;3.80;99.90
3492;DHT22;1760;52.480;13.422;2022-12-07T16:37:12;3.80;99.90
3492;DHT22;1760;52.480;13.422;2022-12-07T16:39:42;2.50;99.90
3492;DHT22;1760;52.480;13.422;2022-12-07T16:42:11;3.70;99.90
3492;DHT22;1760;52.480;13.422;2022-12-07T16:44:38;3.80;99.90
3492;DHT22;1760;52.480;13.422;2022-12-07T16:47:07;3.70;99.90
3492;DHT22;1760;52.480;13.422;2022-12-07T16:49:35;3.70;99.90